createdAt,value
2022-10-11T00:00:09.090Z,77.92
2022-10-11T00:02:35.826Z,78.35
2022-10-11T00:05:02.856Z,78.17
2022-10-11T00:07:29.818Z,77.96
2022-10-11T00:09:56.613Z,78.17
2022-10-11T00:12:23.529Z,78.08
2022-10-11T00:14:50.230Z,78.14
2022-10-11T00:17:16.972Z,78.31
2022-10-11T00:19:43.838Z,77.99
2022-10-11T00:22:10.650Z,77.82
2022-10-11T00:24:37.364Z,78.11
2022-10-11T00:27:04.200Z,78.04
2022-10-11T00:29:30.905Z,78.05
2022-10-11T00:31:57.677Z,78.15
2022-10-11T00:34:24.565Z,77.90
2022-10-11T00:36:51.263Z,78.16
2022-10-11T00:39:20.724Z,78.12
2022-10-11T00:41:49.424Z,78.11
2022-10-11T00:44:17.683Z,78.25
2022-10-11T00:47:12.584Z,78.57
2022-10-11T00:49:44.217Z,77.86
2022-10-11T00:52:34.201Z,78.47
2022-10-11T00:55:12.614Z,78.81
2022-10-11T00:57:44.207Z,78.09
2022-10-11T01:00:13.962Z,78.14
2022-10-11T01:02:41.941Z,78.08
2022-10-11T01:05:28.553Z,78.12
2022-10-11T01:07:56.289Z,78.02
2022-10-11T01:10:24.879Z,78.10
2022-10-11T01:13:22.378Z,78.37
2022-10-11T01:16:04.746Z,78.41
2022-10-11T01:18:47.987Z,77.99
2022-10-11T01:21:34.185Z,78.06
2022-10-11T01:24:08.711Z,77.98
2022-10-11T01:27:00.597Z,78.13
2022-10-11T01:29:30.387Z,77.50
2022-10-11T01:32:19.395Z,77.86
2022-10-11T01:35:00.020Z,77.84
2022-10-11T01:37:35.591Z,77.57
2022-10-11T01:40:12.346Z,77.39
2022-10-11T01:42:41.462Z,77.59
2022-10-11T01:45:10.912Z,77.40
2022-10-11T01:47:39.191Z,77.33
2022-10-11T01:50:08.274Z,77.54
2022-10-11T01:52:42.025Z,77.32
2022-10-11T01:55:23.776Z,77.42
2022-10-11T01:58:09.968Z,77.51
2022-10-11T02:00:51.979Z,77.44
2022-10-11T02:04:08.055Z,77.78
2022-10-11T02:06:56.619Z,77.77
2022-10-11T02:09:26.733Z,77.16
2022-10-11T02:12:02.531Z,77.30
2022-10-11T02:14:34.332Z,77.14
2022-10-11T02:17:07.871Z,76.98
2022-10-11T02:19:45.712Z,76.93
2022-10-11T02:22:21.754Z,77.28
2022-10-11T02:24:52.028Z,77.34
2022-10-11T02:27:24.657Z,77.34
2022-10-11T02:29:54.048Z,77.14
2022-10-11T02:32:22.076Z,77.30
2022-10-11T02:34:55.060Z,77.17
2022-10-11T02:37:27.377Z,77.19
2022-10-11T02:40:18.013Z,77.28
2022-10-11T02:42:50.055Z,77.22
2022-10-11T02:45:21.519Z,77.18
2022-10-11T02:47:48.712Z,77.37
2022-10-11T02:50:16.270Z,77.06
2022-10-11T02:52:43.136Z,77.19
2022-10-11T02:55:11.206Z,77.21
2022-10-11T02:57:37.966Z,77.23
2022-10-11T03:00:05.815Z,77.32
2022-10-11T03:02:32.582Z,77.08
2022-10-11T03:04:59.296Z,76.89
2022-10-11T03:07:26.169Z,76.99
2022-10-11T03:09:52.851Z,76.84
2022-10-11T03:12:19.575Z,76.98
2022-10-11T03:14:46.439Z,77.13
2022-10-11T03:17:35.149Z,76.79
2022-10-11T03:20:00.092Z,76.72
2022-10-11T03:22:26.852Z,76.80
2022-10-11T03:24:53.557Z,76.87
2022-10-11T03:27:20.359Z,77.03
2022-10-11T03:29:47.053Z,77.11
2022-10-11T03:32:13.763Z,77.03
2022-10-11T03:34:40.516Z,76.88
2022-10-11T03:37:07.340Z,76.67
2022-10-11T03:39:34.174Z,76.96
2022-10-11T03:42:07.331Z,76.74
2022-10-11T03:44:40.106Z,77.02
2022-10-11T03:47:12.977Z,77.21
2022-10-11T03:49:43.422Z,77.07
2022-10-11T03:52:11.337Z,77.07
2022-10-11T03:54:38.141Z,76.99
2022-10-11T03:57:04.963Z,77.14
2022-10-11T03:59:33.678Z,76.88
2022-10-11T04:02:00.508Z,77.01
2022-10-11T04:04:27.250Z,76.73
2022-10-11T04:06:54.342Z,76.85
2022-10-11T04:09:21.039Z,76.66
2022-10-11T04:11:47.757Z,76.44
2022-10-11T04:14:14.973Z,76.50
2022-10-11T04:16:42.073Z,76.74
2022-10-11T04:19:08.977Z,76.75
2022-10-11T04:21:35.837Z,76.44
2022-10-11T04:24:02.621Z,76.31
2022-10-11T04:26:29.336Z,76.42
2022-10-11T04:28:56.219Z,76.74
2022-10-11T04:31:23.680Z,76.24
2022-10-11T04:33:50.434Z,76.34
2022-10-11T04:36:17.203Z,76.29
2022-10-11T04:38:43.908Z,76.52
2022-10-11T04:41:13.414Z,76.59
2022-10-11T04:43:40.695Z,76.48
2022-10-11T04:46:08.408Z,76.55
2022-10-11T04:48:35.599Z,76.51
2022-10-11T04:51:02.534Z,76.43
2022-10-11T04:53:29.269Z,76.39
2022-10-11T04:55:58.967Z,76.26
2022-10-11T04:58:25.815Z,76.48
2022-10-11T05:00:52.510Z,76.13
2022-10-11T05:03:19.260Z,76.24
2022-10-11T05:05:46.125Z,76.30
2022-10-11T05:08:13.099Z,76.03
2022-10-11T05:10:39.779Z,76.33
2022-10-11T05:13:07.033Z,76.06
2022-10-11T05:15:33.997Z,75.97
2022-10-11T05:18:00.833Z,76.24
2022-10-11T05:20:28.120Z,75.74
2022-10-11T05:22:54.868Z,76.04
2022-10-11T05:25:21.603Z,75.92
2022-10-11T05:27:48.926Z,75.81
2022-10-11T05:30:15.692Z,75.58
2022-10-11T05:32:42.371Z,75.66
2022-10-11T05:35:09.584Z,75.50
2022-10-11T05:37:36.372Z,75.32
2022-10-11T05:40:04.149Z,75.21
2022-10-11T05:42:30.924Z,75.54
2022-10-11T05:44:57.599Z,75.52
2022-10-11T05:47:24.444Z,75.47
2022-10-11T05:49:51.231Z,75.68
2022-10-11T05:52:21.607Z,75.91
2022-10-11T05:54:48.929Z,75.67
2022-10-11T05:57:16.654Z,75.66
2022-10-11T05:59:43.432Z,76.14
2022-10-11T06:02:13.826Z,75.78
2022-10-11T06:04:40.753Z,76.19
2022-10-11T06:07:09.021Z,75.80
2022-10-11T06:09:35.816Z,75.88
2022-10-11T06:12:03.041Z,75.99
2022-10-11T06:14:29.863Z,76.15
2022-10-11T06:16:56.553Z,75.85
2022-10-11T06:19:23.746Z,75.82
2022-10-11T06:21:50.507Z,76.03
2022-10-11T06:24:17.601Z,75.54
2022-10-11T06:26:44.359Z,75.58
2022-10-11T06:29:11.118Z,75.84
2022-10-11T06:31:37.986Z,75.46
2022-10-11T06:34:04.845Z,75.71
2022-10-11T06:36:31.548Z,75.63
2022-10-11T06:39:01.164Z,75.92
2022-10-11T06:41:30.500Z,75.74
2022-10-11T06:43:57.443Z,75.76
2022-10-11T06:46:26.307Z,75.49
2022-10-11T06:48:54.275Z,75.72
2022-10-11T06:51:22.521Z,75.57
2022-10-11T06:53:51.142Z,75.74
2022-10-11T06:56:19.337Z,75.32
2022-10-11T06:58:46.383Z,75.51
2022-10-11T07:01:18.856Z,75.30
2022-10-11T07:03:46.146Z,75.47
2022-10-11T07:06:15.424Z,75.57
2022-10-11T07:08:43.172Z,75.83
2022-10-11T07:11:11.098Z,75.67
2022-10-11T07:13:38.819Z,76.07
2022-10-11T07:16:08.139Z,76.29
2022-10-11T07:18:35.341Z,75.89
2022-10-11T07:21:11.913Z,76.27
2022-10-11T07:23:38.870Z,76.40
2022-10-11T07:26:07.555Z,76.49
2022-10-11T07:28:36.024Z,76.44
2022-10-11T07:31:10.432Z,76.52
2022-10-11T07:33:37.173Z,76.61
2022-10-11T07:36:05.217Z,76.42
2022-10-11T07:38:33.001Z,76.64
2022-10-11T07:41:00.137Z,76.45
2022-10-11T07:43:26.839Z,76.64
2022-10-11T07:45:55.832Z,76.54
2022-10-11T07:48:22.997Z,76.65
2022-10-11T07:50:49.695Z,76.51
2022-10-11T07:53:16.740Z,76.69
2022-10-11T07:55:43.491Z,76.60
2022-10-11T07:58:11.857Z,76.90
2022-10-11T08:00:42.390Z,76.72
2022-10-11T08:03:10.559Z,77.50
2022-10-11T08:05:39.189Z,77.66
2022-10-11T08:08:05.990Z,77.75
2022-10-11T08:10:38.427Z,77.30
2022-10-11T08:13:05.570Z,77.78
2022-10-11T08:15:32.554Z,77.69
2022-10-11T08:17:59.413Z,77.95
2022-10-11T08:20:27.649Z,77.91
2022-10-11T08:22:55.359Z,77.04
2022-10-11T08:25:22.076Z,77.10
2022-10-11T08:27:48.938Z,76.57
2022-10-11T08:30:15.960Z,76.07
2022-10-11T08:32:42.751Z,75.11
2022-10-11T08:35:09.490Z,74.37
2022-10-11T08:37:36.274Z,73.44
2022-10-11T08:40:03.622Z,72.30
2022-10-11T08:42:48.652Z,72.05
2022-10-11T08:45:32.117Z,71.25
2022-10-11T08:48:16.009Z,70.74
2022-10-11T08:50:46.617Z,69.07
2022-10-11T08:53:54.029Z,69.16
2022-10-11T08:56:22.843Z,67.43
2022-10-11T08:59:02.202Z,67.10
2022-10-11T09:01:31.255Z,65.90
2022-10-11T09:04:00.361Z,64.85
2022-10-11T09:06:30.528Z,64.63
2022-10-11T09:08:59.828Z,63.58
2022-10-11T09:11:46.940Z,63.05
2022-10-11T09:14:19.465Z,62.49
2022-10-11T09:17:22.015Z,62.03
2022-10-11T09:20:13.481Z,61.73
2022-10-11T09:23:19.380Z,61.33
2022-10-11T09:25:58.276Z,60.10
2022-10-11T09:28:46.342Z,59.14
2022-10-11T09:31:13.209Z,58.06
2022-10-11T09:33:51.572Z,58.18
2022-10-11T09:36:27.325Z,57.35
2022-10-11T09:39:06.895Z,57.10
2022-10-11T09:41:38.637Z,55.75
2022-10-11T09:44:07.759Z,53.57
2022-10-11T09:46:34.332Z,57.44
2022-10-11T09:49:08.071Z,52.55
2022-10-11T09:51:35.083Z,50.87
2022-10-11T09:54:05.198Z,50.03
2022-10-11T09:56:35.276Z,49.53
2022-10-11T09:59:21.205Z,48.77
2022-10-11T10:01:48.548Z,48.13
2022-10-11T10:04:17.320Z,47.21
2022-10-11T10:06:44.233Z,46.46
2022-10-11T10:09:31.177Z,46.67
2022-10-11T10:11:58.336Z,45.43
2022-10-11T10:14:29.136Z,44.46
2022-10-11T10:17:03.027Z,43.80
2022-10-11T10:19:47.600Z,42.71
2022-10-11T10:22:28.567Z,43.49
2022-10-11T10:24:57.131Z,42.80
2022-10-11T10:27:25.314Z,42.34
2022-10-11T10:30:08.486Z,42.49
2022-10-11T10:32:57.102Z,41.82
2022-10-11T10:35:44.869Z,41.57
2022-10-11T10:38:14.365Z,41.29
2022-10-11T10:40:59.159Z,41.50
2022-10-11T10:43:30.278Z,40.37
2022-10-11T10:46:24.926Z,40.34
2022-10-11T10:52:42.057Z,40.50
2022-10-11T10:55:33.736Z,40.15
2022-10-11T10:58:22.413Z,39.47
2022-10-11T11:00:52.035Z,38.50
2022-10-11T11:03:46.228Z,38.46
2022-10-11T11:06:35.691Z,36.49
2022-10-11T11:09:07.231Z,36.01
2022-10-11T11:11:36.893Z,35.74
2022-10-11T11:14:08.627Z,35.52
2022-10-11T11:17:00.504Z,34.86
2022-10-11T11:19:38.166Z,35.11
2022-10-11T11:22:04.896Z,34.39
2022-10-11T11:24:40.669Z,33.92
2022-10-11T11:27:10.496Z,33.29
2022-10-11T11:30:01.906Z,33.17
2022-10-11T11:32:49.419Z,32.10
2022-10-11T11:35:28.311Z,31.61
2022-10-11T11:38:06.385Z,30.98
2022-10-11T11:40:37.336Z,32.63
2022-10-11T11:43:19.201Z,30.66
2022-10-11T11:45:52.074Z,29.92
2022-10-11T11:48:24.663Z,29.08
2022-10-11T11:50:59.241Z,28.47
2022-10-11T11:53:43.631Z,27.78
2022-10-11T11:56:25.938Z,27.31
2022-10-11T11:59:19.769Z,26.66
2022-10-11T12:01:56.037Z,27.22
2022-10-11T12:04:28.632Z,26.31
2022-10-11T12:07:16.212Z,26.30
2022-10-11T12:09:47.013Z,25.14
2022-10-11T12:12:36.425Z,25.57
2022-10-11T12:15:09.164Z,25.34
2022-10-11T12:17:58.012Z,25.34
2022-10-11T12:20:30.945Z,25.00
2022-10-11T12:23:00.938Z,24.46
2022-10-11T12:25:28.593Z,24.06
2022-10-11T12:27:57.183Z,24.03
2022-10-11T12:30:48.552Z,23.86
2022-10-11T12:33:18.287Z,22.95
2022-10-11T12:35:54.479Z,23.26
2022-10-11T12:38:37.369Z,22.84
2022-10-11T12:41:10.434Z,22.57
2022-10-11T12:44:06.173Z,22.36
2022-10-11T12:46:40.569Z,22.10
2022-10-11T12:49:22.888Z,22.08
2022-10-11T12:52:20.398Z,21.59
2022-10-11T12:55:26.729Z,21.58
2022-10-11T12:57:56.798Z,20.94
2022-10-11T13:00:40.513Z,20.70
2022-10-11T13:03:32.557Z,20.80
2022-10-11T13:06:09.574Z,22.11
2022-10-11T13:08:40.426Z,24.92
2022-10-11T13:11:11.022Z,26.91
2022-10-11T13:13:42.646Z,28.56
2022-10-11T13:16:14.354Z,30.06
2022-10-11T13:18:48.217Z,31.20
2022-10-11T13:21:27.152Z,32.33
2022-10-11T13:24:16.189Z,33.59
2022-10-11T13:26:50.487Z,35.06
2022-10-11T13:29:26.375Z,35.61
2022-10-11T13:31:53.172Z,36.38
2022-10-11T13:34:23.386Z,36.98
2022-10-11T13:36:56.074Z,37.54
2022-10-11T13:39:31.257Z,38.38
2022-10-11T13:41:59.938Z,38.77
2022-10-11T13:44:27.352Z,39.26
2022-10-11T13:46:54.665Z,39.80
2022-10-11T13:49:31.717Z,40.34
2022-10-11T13:52:01.186Z,41.22
2022-10-11T13:55:05.318Z,41.77
2022-10-11T13:57:52.632Z,42.09
2022-10-11T14:00:32.632Z,42.34
2022-10-11T14:03:17.781Z,42.90
2022-10-11T14:05:54.561Z,43.41
2022-10-11T14:08:42.095Z,43.72
2022-10-11T14:11:11.596Z,43.79
2022-10-11T14:13:56.577Z,44.33
2022-10-11T14:16:23.330Z,44.76
2022-10-11T14:18:58.965Z,44.86
2022-10-11T14:21:46.740Z,45.25
2022-10-11T14:24:15.117Z,45.37
2022-10-11T14:26:48.507Z,45.56
2022-10-11T14:29:23.748Z,45.50
2022-10-11T14:31:51.208Z,45.34
2022-10-11T14:34:20.923Z,45.77
2022-10-11T14:36:48.393Z,45.67
2022-10-11T14:39:18.325Z,45.74
2022-10-11T14:41:45.581Z,46.45
2022-10-11T14:44:12.517Z,46.27
2022-10-11T14:46:41.188Z,46.63
2022-10-11T14:49:17.023Z,46.66
2022-10-11T14:51:47.551Z,47.02
2022-10-11T14:54:15.328Z,47.84
2022-10-11T14:56:42.270Z,47.94
2022-10-11T14:59:15.015Z,47.66
2022-10-11T15:01:42.088Z,47.62
2022-10-11T15:04:09.231Z,47.91
2022-10-11T15:06:38.999Z,47.84
2022-10-11T15:09:06.583Z,47.90
2022-10-11T15:11:33.765Z,47.82
2022-10-11T15:14:00.735Z,47.96
2022-10-11T15:16:27.465Z,48.19
2022-10-11T15:18:54.336Z,48.19
2022-10-11T15:21:24.026Z,48.27
2022-10-11T15:23:52.132Z,48.42
2022-10-11T15:26:29.603Z,48.36
2022-10-11T15:28:57.535Z,48.80
2022-10-11T15:31:24.516Z,48.43
2022-10-11T15:33:51.792Z,48.96
2022-10-11T15:36:21.531Z,49.06
2022-10-11T15:38:49.436Z,48.79
2022-10-11T15:41:18.965Z,48.91
2022-10-11T15:43:47.156Z,49.16
2022-10-11T15:46:17.639Z,49.10
2022-10-11T15:48:44.878Z,49.05
2022-10-11T15:51:11.761Z,48.99
2022-10-11T15:53:38.562Z,49.09
2022-10-11T15:56:08.406Z,48.66
2022-10-11T15:58:40.900Z,48.93
2022-10-11T16:01:11.892Z,48.56
2022-10-11T16:03:38.696Z,48.69
2022-10-11T16:06:06.088Z,48.82
2022-10-11T16:08:34.346Z,48.70
2022-10-11T16:11:01.675Z,48.62
2022-10-11T16:13:28.467Z,48.86
2022-10-11T16:15:55.400Z,48.92
2022-10-11T16:18:22.407Z,48.83
2022-10-11T16:20:52.080Z,49.02
2022-10-11T16:23:21.073Z,49.93
2022-10-11T16:26:03.758Z,49.70
2022-10-11T16:28:32.053Z,49.96
2022-10-11T16:30:59.168Z,50.38
2022-10-11T16:33:27.018Z,50.49
2022-10-11T16:35:54.006Z,50.36
2022-10-11T16:38:20.725Z,51.11
2022-10-11T16:40:47.470Z,51.23
2022-10-11T16:43:14.410Z,50.81
2022-10-11T16:45:41.132Z,51.18
2022-10-11T16:48:07.893Z,50.95
2022-10-11T16:50:39.329Z,51.52
2022-10-11T16:53:06.601Z,51.13
2022-10-11T16:55:33.335Z,51.38
2022-10-11T16:58:00.184Z,51.28
2022-10-11T17:00:26.903Z,51.58
2022-10-11T17:02:53.583Z,51.62
2022-10-11T17:05:20.495Z,51.55
2022-10-11T17:07:47.196Z,51.28
2022-10-11T17:10:13.973Z,51.37
2022-10-11T17:12:40.820Z,51.48
2022-10-11T17:15:10.781Z,51.74
2022-10-11T17:17:37.877Z,51.85
2022-10-11T17:20:05.187Z,51.40
2022-10-11T17:22:31.884Z,51.50
2022-10-11T17:25:01.516Z,51.98
2022-10-11T17:27:28.793Z,52.26
2022-10-11T17:29:55.530Z,51.96
2022-10-11T17:32:22.228Z,52.16
2022-10-11T17:34:49.039Z,52.84
2022-10-11T17:37:15.788Z,52.54
2022-10-11T17:39:43.011Z,52.56
2022-10-11T17:42:09.838Z,52.66
2022-10-11T17:44:36.639Z,53.00
2022-10-11T17:47:04.906Z,52.77
2022-10-11T17:49:31.910Z,53.10
2022-10-11T17:51:58.692Z,52.95
2022-10-11T17:54:26.123Z,53.07
2022-10-11T17:56:54.767Z,53.41
2022-10-11T17:59:21.944Z,54.11
2022-10-11T18:01:51.830Z,54.03
2022-10-11T18:04:21.585Z,54.32
2022-10-11T18:06:48.500Z,53.91
2022-10-11T18:09:17.571Z,54.41
2022-10-11T18:11:44.667Z,54.73
2022-10-11T18:14:11.427Z,54.96
2022-10-11T18:16:39.165Z,55.10
2022-10-11T18:19:11.297Z,55.22
2022-10-11T18:21:38.981Z,55.66
2022-10-11T18:24:13.053Z,55.39
2022-10-11T18:26:40.047Z,55.85
2022-10-11T18:29:07.125Z,55.51
2022-10-11T18:31:35.371Z,56.17
2022-10-11T18:34:03.296Z,55.85
2022-10-11T18:36:31.363Z,56.18
2022-10-11T18:39:00.879Z,55.97
2022-10-11T18:41:30.820Z,56.16
2022-10-11T18:44:04.518Z,56.46
2022-10-11T18:46:32.369Z,56.47
2022-10-11T18:49:02.177Z,56.32
2022-10-11T18:51:28.958Z,56.15
2022-10-11T18:53:58.502Z,56.48
2022-10-11T18:56:27.120Z,56.35
2022-10-11T18:58:55.727Z,56.53
2022-10-11T19:01:26.720Z,56.60
2022-10-11T19:03:56.837Z,56.61
2022-10-11T19:06:26.995Z,56.77
2022-10-11T19:09:01.966Z,56.88
2022-10-11T19:11:29.117Z,56.97
2022-10-11T19:14:00.029Z,56.83
2022-10-11T19:16:29.979Z,56.74
2022-10-11T19:18:57.324Z,56.88
2022-10-11T19:21:24.916Z,56.99
2022-10-11T19:23:52.535Z,56.93
2022-10-11T19:26:22.534Z,56.96
2022-10-11T19:28:55.433Z,57.07
2022-10-11T19:31:22.199Z,57.45
2022-10-11T19:33:49.717Z,57.44
2022-10-11T19:36:17.503Z,57.39
2022-10-11T19:38:46.622Z,57.70
2022-10-11T19:41:15.260Z,57.62
2022-10-11T19:43:42.862Z,57.76
2022-10-11T19:46:20.221Z,57.86
2022-10-11T19:48:54.544Z,57.97
2022-10-11T19:51:26.628Z,57.81
2022-10-11T19:53:56.999Z,58.20
2022-10-11T19:56:27.863Z,58.21
2022-10-11T19:58:55.166Z,58.48
2022-10-11T20:01:24.235Z,58.49
2022-10-11T20:03:54.018Z,58.49
2022-10-11T20:06:23.082Z,58.48
2022-10-11T20:09:10.327Z,58.53
2022-10-11T20:11:37.506Z,58.69
2022-10-11T20:14:04.621Z,58.74
2022-10-11T20:16:31.324Z,59.22
2022-10-11T20:18:59.377Z,59.16
2022-10-11T20:21:28.714Z,59.18
2022-10-11T20:24:01.353Z,59.09
2022-10-11T20:26:29.894Z,59.19
2022-10-11T20:28:57.342Z,59.45
2022-10-11T20:31:29.836Z,59.26
2022-10-11T20:33:58.575Z,59.53
2022-10-11T20:36:28.053Z,59.44
2022-10-11T20:38:54.956Z,59.51
2022-10-11T20:41:27.651Z,59.49
2022-10-11T20:43:56.852Z,59.63
2022-10-11T20:46:28.138Z,59.72
2022-10-11T20:49:01.547Z,59.67
2022-10-11T20:51:30.296Z,59.87
2022-10-11T20:53:57.460Z,59.84
2022-10-11T20:56:24.888Z,59.95
2022-10-11T20:58:53.780Z,59.92
2022-10-11T21:01:23.519Z,59.92
2022-10-11T21:03:50.568Z,60.00
2022-10-11T21:06:17.318Z,59.96
2022-10-11T21:08:44.901Z,60.25
2022-10-11T21:11:11.706Z,60.09
2022-10-11T21:13:38.615Z,60.30
2022-10-11T21:16:05.435Z,60.25
2022-10-11T21:18:32.349Z,60.63
2022-10-11T21:21:06.431Z,60.57
2022-10-11T21:23:33.624Z,61.04
2022-10-11T21:26:06.236Z,61.17
2022-10-11T21:28:34.070Z,60.77
2022-10-11T21:31:08.756Z,60.99
2022-10-11T21:33:36.184Z,60.54
2022-10-11T21:36:20.126Z,60.56
2022-10-11T21:38:46.957Z,60.39
2022-10-11T21:41:18.284Z,60.52
2022-10-11T21:43:45.859Z,60.58
2022-10-11T21:46:16.372Z,60.37
2022-10-11T21:48:43.358Z,60.54
2022-10-11T21:51:17.726Z,60.95
2022-10-11T21:53:44.416Z,61.30
2022-10-11T21:56:11.160Z,60.86
2022-10-11T21:58:37.980Z,60.78
2022-10-11T22:01:04.814Z,60.63
2022-10-11T22:03:31.633Z,60.65
2022-10-11T22:06:01.387Z,60.84
2022-10-11T22:08:28.089Z,60.64
2022-10-11T22:10:58.056Z,60.61
2022-10-11T22:13:25.772Z,60.73
2022-10-11T22:15:53.719Z,60.66
2022-10-11T22:18:20.800Z,60.74
2022-10-11T22:20:47.597Z,61.04
2022-10-11T22:23:14.357Z,61.42
2022-10-11T22:25:41.499Z,61.49
2022-10-11T22:28:08.857Z,61.57
2022-10-11T22:30:35.637Z,61.44
2022-10-11T22:33:02.391Z,61.64
2022-10-11T22:35:31.388Z,61.72
2022-10-11T22:38:00.333Z,61.74
2022-10-11T22:40:27.102Z,61.93
2022-10-11T22:42:53.923Z,61.88
2022-10-11T22:45:20.606Z,61.91
2022-10-11T22:47:47.291Z,61.68
2022-10-11T22:50:14.135Z,62.00
2022-10-11T22:52:40.887Z,61.87
2022-10-11T22:55:08.016Z,61.86
2022-10-11T22:57:35.146Z,61.73
2022-10-11T23:00:02.049Z,61.77
2022-10-11T23:02:28.845Z,61.91
2022-10-11T23:04:55.676Z,61.89
2022-10-11T23:07:22.424Z,61.90
2022-10-11T23:09:49.134Z,62.01
2022-10-11T23:12:16.006Z,61.80
2022-10-11T23:14:42.854Z,61.82
2022-10-11T23:17:09.561Z,62.22
2022-10-11T23:19:37.308Z,62.32
2022-10-11T23:22:04.095Z,62.63
2022-10-11T23:24:30.955Z,62.59
2022-10-11T23:26:57.765Z,62.72
2022-10-11T23:29:24.509Z,63.04
2022-10-11T23:31:51.634Z,63.27
2022-10-11T23:34:18.585Z,63.27
2022-10-11T23:36:45.343Z,62.91
2022-10-11T23:39:13.064Z,63.22
2022-10-11T23:41:39.885Z,62.68
2022-10-11T23:44:06.665Z,62.64
2022-10-11T23:46:33.493Z,62.41
2022-10-11T23:49:00.308Z,62.30
2022-10-11T23:51:27.196Z,62.28
2022-10-11T23:53:54.182Z,62.07
2022-10-11T23:56:21.542Z,62.13
2022-10-11T23:58:48.322Z,62.17
